sensor_id;sensor_type;location;lat;lon;timestamp;temperature;humidity
12223;DHT22;6174;49.058;8.524;2023-02-18T06:00:50;12.00;99.90
12223;DHT22;6174;49.058;8.524;2023-02-18T06:03:17;12.20;99.90
12223;DHT22;6174;49.058;8.524;2023-02-18T06:05:43;12.10;99.90
12223;DHT22;6174;49.058;8.524;2023-02-18T06:08:12;12.20;99.90
12223;DHT22;6174;49.058;8.524;2023-02-18T06:10:39;12.20;99.90
12223;DHT22;6174;49.058;8.524;2023-02-18T06:13:06;12.20;99.90
12223;DHT22;6174;49.058;8.524;2023-02-18T06:15:33;12.20;99.90
12223;DHT22;6174;49.058;8.524;2023-02-18T06:18:01;12.20;99.90
12223;DHT22;6174;49.058;8.524;2023-02-18T06:20:28;12.20;99.90
12223;DHT22;6174;49.058;8.524;2023-02-18T06:22:54;12.20;99.90
12223;DHT22;6174;49.058;8.524;2023-02-18T06:25:21;12.20;99.90
12223;DHT22;6174;49.058;8.524;2023-02-18T06:27:48;12.20;99.90
12223;DHT22;6174;49.058;8.524;2023-02-18T06:30:16;12.20;99.90
12223;DHT22;6174;49.058;8.524;2023-02-18T06:32:43;12.20;99.90
12223;DHT22;6174;49.058;8.524;2023-02-18T06:35:11;12.20;99.90
12223;DHT22;6174;49.058;8.524;2023-02-18T06:37:38;12.20;99.90
12223;DHT22;6174;49.058;8.524;2023-02-18T06:40:06;12.10;99.90
12223;DHT22;6174;49.058;8.524;2023-02-18T06:42:33;12.20;99.90
12223;DHT22;6174;49.058;8.524;2023-02-18T06:44:59;12.30;99.90
12223;DHT22;6174;49.058;8.524;2023-02-18T06:47:26;12.20;99.90
12223;DHT22;6174;49.058;8.524;2023-02-18T06:49:53;12.30;99.90
12223;DHT22;6174;49.058;8.524;2023-02-18T06:52:22;12.20;99.90
12223;DHT22;6174;49.058;8.524;2023-02-18T06:54:49;12.20;99.90
12223;DHT22;6174;49.058;8.524;2023-02-18T06:57:16;12.30;99.90
12223;DHT22;6174;49.058;8.524;2023-02-18T06:59:43;12.20;99.90
12223;DHT22;6174;49.058;8.524;2023-02-18T07:02:10;12.20;99.90
12223;DHT22;6174;49.058;8.524;2023-02-18T07:04:38;12.30;99.90
12223;DHT22;6174;49.058;8.524;2023-02-18T07:07:04;12.30;99.90
12223;DHT22;6174;49.058;8.524;2023-02-18T07:09:32;12.30;99.90
12223;DHT22;6174;49.058;8.524;2023-02-18T07:11:59;12.30;99.90
12223;DHT22;6174;49.058;8.524;2023-02-18T07:14:26;12.30;99.90
12223;DHT22;6174;49.058;8.524;2023-02-18T07:16:53;12.30;99.90
12223;DHT22;6174;49.058;8.524;2023-02-18T07:19:20;12.30;99.90
12223;DHT22;6174;49.058;8.524;2023-02-18T07:21:47;12.40;99.90
12223;DHT22;6174;49.058;8.524;2023-02-18T07:24:13;12.50;99.90
12223;DHT22;6174;49.058;8.524;2023-02-18T07:26:41;12.50;99.90
12223;DHT22;6174;49.058;8.524;2023-02-18T07:29:08;12.50;99.90
12223;DHT22;6174;49.058;8.524;2023-02-18T07:31:35;12.50;99.90
12223;DHT22;6174;49.058;8.524;2023-02-18T07:34:03;12.50;99.90
12223;DHT22;6174;49.058;8.524;2023-02-18T07:36:29;12.60;99.90
12223;DHT22;6174;49.058;8.524;2023-02-18T07:38:56;12.60;99.90
12223;DHT22;6174;49.058;8.524;2023-02-18T07:41:23;12.60;99.90
12223;DHT22;6174;49.058;8.524;2023-02-18T07:43:51;12.60;99.90
12223;DHT22;6174;49.058;8.524;2023-02-18T07:46:18;12.80;99.90
12223;DHT22;6174;49.058;8.524;2023-02-18T07:48:45;12.80;99.90
12223;DHT22;6174;49.058;8.524;2023-02-18T07:51:12;12.90;99.90
12223;DHT22;6174;49.058;8.524;2023-02-18T07:53:39;12.90;99.90
12223;DHT22;6174;49.058;8.524;2023-02-18T07:56:06;12.90;99.90
12223;DHT22;6174;49.058;8.524;2023-02-18T07:58:35;12.90;99.90
12223;DHT22;6174;49.058;8.524;2023-02-18T08:01:05;12.90;99.90
12223;DHT22;6174;49.058;8.524;2023-02-18T08:03:32;13.00;99.90
12223;DHT22;6174;49.058;8.524;2023-02-18T08:06:01;13.00;99.90
12223;DHT22;6174;49.058;8.524;2023-02-18T08:08:30;13.10;99.90
12223;DHT22;6174;49.058;8.524;2023-02-18T08:10:59;13.20;99.90
12223;DHT22;6174;49.058;8.524;2023-02-18T08:13:27;13.30;99.90
12223;DHT22;6174;49.058;8.524;2023-02-18T08:15:54;13.20;99.90
12223;DHT22;6174;49.058;8.524;2023-02-18T08:18:24;13.20;99.90
12223;DHT22;6174;49.058;8.524;2023-02-18T08:20:52;13.20;99.90
12223;DHT22;6174;49.058;8.524;2023-02-18T08:23:21;13.30;99.90
12223;DHT22;6174;49.058;8.524;2023-02-18T08:25:51;13.30;99.90
12223;DHT22;6174;49.058;8.524;2023-02-18T08:28:19;13.30;99.90
12223;DHT22;6174;49.058;8.524;2023-02-18T08:30:48;13.40;99.90
12223;DHT22;6174;49.058;8.524;2023-02-18T08:33:15;13.40;99.90
12223;DHT22;6174;49.058;8.524;2023-02-18T08:35:44;13.30;99.90
12223;DHT22;6174;49.058;8.524;2023-02-18T08:38:12;13.40;99.90
12223;DHT22;6174;49.058;8.524;2023-02-18T08:40:39;13.50;99.90
12223;DHT22;6174;49.058;8.524;2023-02-18T08:43:07;13.50;99.90
12223;DHT22;6174;49.058;8.524;2023-02-18T08:45:35;13.50;99.90
12223;DHT22;6174;49.058;8.524;2023-02-18T08:48:02;13.50;99.90
12223;DHT22;6174;49.058;8.524;2023-02-18T08:50:29;13.50;99.90
12223;DHT22;6174;49.058;8.524;2023-02-18T08:53:02;13.50;99.90
12223;DHT22;6174;49.058;8.524;2023-02-18T08:55:30;13.60;99.90
12223;DHT22;6174;49.058;8.524;2023-02-18T08:57:56;13.50;99.90
12223;DHT22;6174;49.058;8.524;2023-02-18T09:00:24;13.50;99.90
12223;DHT22;6174;49.058;8.524;2023-02-18T09:02:51;13.50;99.90
12223;DHT22;6174;49.058;8.524;2023-02-18T09:05:17;13.60;99.90
12223;DHT22;6174;49.058;8.524;2023-02-18T09:07:44;13.50;99.90
12223;DHT22;6174;49.058;8.524;2023-02-18T09:10:13;13.60;99.90
12223;DHT22;6174;49.058;8.524;2023-02-18T09:12:39;13.50;99.90
12223;DHT22;6174;49.058;8.524;2023-02-18T09:15:07;13.50;99.90
12223;DHT22;6174;49.058;8.524;2023-02-18T09:17:34;13.50;99.90
12223;DHT22;6174;49.058;8.524;2023-02-18T09:20:05;13.50;99.90
12223;DHT22;6174;49.058;8.524;2023-02-18T09:22:32;13.50;99.90
12223;DHT22;6174;49.058;8.524;2023-02-18T09:24:59;13.50;99.90
12223;DHT22;6174;49.058;8.524;2023-02-18T09:27:27;13.40;99.90
12223;DHT22;6174;49.058;8.524;2023-02-18T09:29:54;13.50;99.90
12223;DHT22;6174;49.058;8.524;2023-02-18T09:32:21;13.50;99.90
12223;DHT22;6174;49.058;8.524;2023-02-18T09:34:47;13.60;99.90
12223;DHT22;6174;49.058;8.524;2023-02-18T09:37:14;13.60;99.90
12223;DHT22;6174;49.058;8.524;2023-02-18T09:39:41;13.70;99.90
12223;DHT22;6174;49.058;8.524;2023-02-18T09:42:16;13.60;99.90
12223;DHT22;6174;49.058;8.524;2023-02-18T09:44:49;13.60;99.90
12223;DHT22;6174;49.058;8.524;2023-02-18T09:47:19;13.60;99.90
12223;DHT22;6174;49.058;8.524;2023-02-18T09:49:51;13.70;99.90
12223;DHT22;6174;49.058;8.524;2023-02-18T09:52:21;13.70;99.90
12223;DHT22;6174;49.058;8.524;2023-02-18T09:54:50;13.70;99.90
12223;DHT22;6174;49.058;8.524;2023-02-18T09:57:21;13.70;99.90
12223;DHT22;6174;49.058;8.524;2023-02-18T09:59:56;13.70;99.90
12223;DHT22;6174;49.058;8.524;2023-02-18T10:02:26;13.70;99.90
12223;DHT22;6174;49.058;8.524;2023-02-18T10:04:54;13.70;99.90
12223;DHT22;6174;49.058;8.524;2023-02-18T10:07:25;13.70;99.90
12223;DHT22;6174;49.058;8.524;2023-02-18T10:09:54;13.70;99.90
12223;DHT22;6174;49.058;8.524;2023-02-18T10:12:23;13.70;99.90
12223;DHT22;6174;49.058;8.524;2023-02-18T10:14:54;13.80;99.90
12223;DHT22;6174;49.058;8.524;2023-02-18T10:17:23;13.80;99.90
12223;DHT22;6174;49.058;8.524;2023-02-18T10:19:51;13.70;99.90
12223;DHT22;6174;49.058;8.524;2023-02-18T10:22:20;13.80;99.90
12223;DHT22;6174;49.058;8.524;2023-02-18T10:24:49;13.80;99.90
12223;DHT22;6174;49.058;8.524;2023-02-18T10:27:22;13.80;99.90
12223;DHT22;6174;49.058;8.524;2023-02-18T10:29:51;13.90;99.90
12223;DHT22;6174;49.058;8.524;2023-02-18T10:32:22;13.90;99.90
12223;DHT22;6174;49.058;8.524;2023-02-18T10:34:52;14.30;99.90
12223;DHT22;6174;49.058;8.524;2023-02-18T10:37:30;14.00;99.90
12223;DHT22;6174;49.058;8.524;2023-02-18T10:40:09;14.00;99.90
12223;DHT22;6174;49.058;8.524;2023-02-18T10:42:45;14.10;99.90
12223;DHT22;6174;49.058;8.524;2023-02-18T10:45:26;14.00;99.90
12223;DHT22;6174;49.058;8.524;2023-02-18T10:50:46;14.10;99.90
12223;DHT22;6174;49.058;8.524;2023-02-18T10:53:15;14.00;99.90
12223;DHT22;6174;49.058;8.524;2023-02-18T10:55:44;14.10;99.90
12223;DHT22;6174;49.058;8.524;2023-02-18T10:58:29;14.10;99.90
12223;DHT22;6174;49.058;8.524;2023-02-18T11:00:59;14.10;99.90
12223;DHT22;6174;49.058;8.524;2023-02-18T11:03:39;14.10;99.90
12223;DHT22;6174;49.058;8.524;2023-02-18T11:06:15;14.10;99.90
12223;DHT22;6174;49.058;8.524;2023-02-18T11:08:44;14.10;99.90
12223;DHT22;6174;49.058;8.524;2023-02-18T11:11:15;14.10;99.90
12223;DHT22;6174;49.058;8.524;2023-02-18T11:13:42;14.20;99.90
12223;DHT22;6174;49.058;8.524;2023-02-18T11:16:11;14.20;99.90
12223;DHT22;6174;49.058;8.524;2023-02-18T11:18:40;14.10;99.90
12223;DHT22;6174;49.058;8.524;2023-02-18T11:21:20;14.10;99.90
12223;DHT22;6174;49.058;8.524;2023-02-18T11:23:52;14.10;99.90
12223;DHT22;6174;49.058;8.524;2023-02-18T11:26:24;14.10;99.90
12223;DHT22;6174;49.058;8.524;2023-02-18T11:28:57;14.10;99.90
12223;DHT22;6174;49.058;8.524;2023-02-18T11:31:38;14.10;99.90
12223;DHT22;6174;49.058;8.524;2023-02-18T11:34:14;14.10;99.90
12223;DHT22;6174;49.058;8.524;2023-02-18T11:36:42;14.10;99.90
12223;DHT22;6174;49.058;8.524;2023-02-18T11:39:17;14.20;99.90
12223;DHT22;6174;49.058;8.524;2023-02-18T11:41:47;14.30;99.90
12223;DHT22;6174;49.058;8.524;2023-02-18T11:44:20;14.40;99.90
12223;DHT22;6174;49.058;8.524;2023-02-18T11:47:00;14.40;99.90
12223;DHT22;6174;49.058;8.524;2023-02-18T11:49:29;14.40;99.90
12223;DHT22;6174;49.058;8.524;2023-02-18T11:52:08;14.40;99.90
12223;DHT22;6174;49.058;8.524;2023-02-18T11:54:40;14.40;99.90
12223;DHT22;6174;49.058;8.524;2023-02-18T11:57:11;14.30;99.90
12223;DHT22;6174;49.058;8.524;2023-02-18T11:59:39;14.40;99.90
12223;DHT22;6174;49.058;8.524;2023-02-18T12:02:24;14.40;99.90
12223;DHT22;6174;49.058;8.524;2023-02-18T12:04:58;14.50;99.90
12223;DHT22;6174;49.058;8.524;2023-02-18T12:07:30;14.40;99.90
12223;DHT22;6174;49.058;8.524;2023-02-18T12:10:03;14.40;99.90
12223;DHT22;6174;49.058;8.524;2023-02-18T12:12:42;14.30;99.90
12223;DHT22;6174;49.058;8.524;2023-02-18T12:15:13;14.30;99.90
12223;DHT22;6174;49.058;8.524;2023-02-18T12:17:52;14.30;99.90
12223;DHT22;6174;49.058;8.524;2023-02-18T12:20:42;14.30;99.90
12223;DHT22;6174;49.058;8.524;2023-02-18T12:23:19;14.30;99.90
12223;DHT22;6174;49.058;8.524;2023-02-18T12:25:55;14.20;99.90
12223;DHT22;6174;49.058;8.524;2023-02-18T12:28:35;14.20;99.90
12223;DHT22;6174;49.058;8.524;2023-02-18T12:31:24;14.20;99.90
12223;DHT22;6174;49.058;8.524;2023-02-18T12:34:04;14.20;99.90
12223;DHT22;6174;49.058;8.524;2023-02-18T12:36:46;14.20;99.90
12223;DHT22;6174;49.058;8.524;2023-02-18T12:39:26;14.20;99.90
12223;DHT22;6174;49.058;8.524;2023-02-18T12:42:05;14.10;99.90
12223;DHT22;6174;49.058;8.524;2023-02-18T12:44:40;14.20;99.90
12223;DHT22;6174;49.058;8.524;2023-02-18T12:47:28;14.10;99.90
12223;DHT22;6174;49.058;8.524;2023-02-18T12:50:28;14.10;99.90
12223;DHT22;6174;49.058;8.524;2023-02-18T12:53:18;14.00;99.90
12223;DHT22;6174;49.058;8.524;2023-02-18T12:55:57;14.00;99.90
12223;DHT22;6174;49.058;8.524;2023-02-18T12:58:39;14.10;99.90
12223;DHT22;6174;49.058;8.524;2023-02-18T13:01:24;14.10;99.90
12223;DHT22;6174;49.058;8.524;2023-02-18T13:07:34;14.10;99.90
12223;DHT22;6174;49.058;8.524;2023-02-18T13:10:23;14.10;99.90
12223;DHT22;6174;49.058;8.524;2023-02-18T13:12:59;14.20;99.90
12223;DHT22;6174;49.058;8.524;2023-02-18T13:15:35;14.20;99.90
12223;DHT22;6174;49.058;8.524;2023-02-18T13:18:07;14.30;99.90
12223;DHT22;6174;49.058;8.524;2023-02-18T13:20:38;14.20;99.90
12223;DHT22;6174;49.058;8.524;2023-02-18T13:23:15;14.20;99.90
12223;DHT22;6174;49.058;8.524;2023-02-18T13:25:43;14.20;99.90
12223;DHT22;6174;49.058;8.524;2023-02-18T13:28:16;14.20;99.90
12223;DHT22;6174;49.058;8.524;2023-02-18T13:30:49;14.50;99.90
12223;DHT22;6174;49.058;8.524;2023-02-18T13:33:26;14.30;99.90
12223;DHT22;6174;49.058;8.524;2023-02-18T13:36:02;14.40;99.90
12223;DHT22;6174;49.058;8.524;2023-02-18T13:38:49;14.30;99.90
12223;DHT22;6174;49.058;8.524;2023-02-18T13:41:18;14.50;99.90
12223;DHT22;6174;49.058;8.524;2023-02-18T13:43:45;14.50;99.20
12223;DHT22;6174;49.058;8.524;2023-02-18T13:46:12;14.60;99.00
12223;DHT22;6174;49.058;8.524;2023-02-18T13:48:46;14.50;98.80
12223;DHT22;6174;49.058;8.524;2023-02-18T13:51:15;14.50;98.40
12223;DHT22;6174;49.058;8.524;2023-02-18T13:53:49;14.60;97.90
12223;DHT22;6174;49.058;8.524;2023-02-18T13:56:22;14.70;97.50
12223;DHT22;6174;49.058;8.524;2023-02-18T13:58:54;14.80;97.30
12223;DHT22;6174;49.058;8.524;2023-02-18T14:01:39;14.80;96.70
12223;DHT22;6174;49.058;8.524;2023-02-18T14:07:43;14.80;96.30
12223;DHT22;6174;49.058;8.524;2023-02-18T14:10:29;14.90;96.20
12223;DHT22;6174;49.058;8.524;2023-02-18T14:13:18;14.80;95.30
12223;DHT22;6174;49.058;8.524;2023-02-18T14:15:53;14.80;95.10
12223;DHT22;6174;49.058;8.524;2023-02-18T14:18:30;14.80;95.60
12223;DHT22;6174;49.058;8.524;2023-02-18T14:21:18;14.80;95.50
12223;DHT22;6174;49.058;8.524;2023-02-18T14:23:57;14.70;95.50
12223;DHT22;6174;49.058;8.524;2023-02-18T14:26:29;14.70;95.50
12223;DHT22;6174;49.058;8.524;2023-02-18T14:29:00;14.70;95.10
12223;DHT22;6174;49.058;8.524;2023-02-18T14:31:47;14.60;94.70
12223;DHT22;6174;49.058;8.524;2023-02-18T14:34:45;14.60;94.30
12223;DHT22;6174;49.058;8.524;2023-02-18T14:37:43;14.60;94.30
12223;DHT22;6174;49.058;8.524;2023-02-18T14:40:34;14.60;94.30
12223;DHT22;6174;49.058;8.524;2023-02-18T14:43:12;14.70;93.80
12223;DHT22;6174;49.058;8.524;2023-02-18T14:45:59;14.50;93.90
12223;DHT22;6174;49.058;8.524;2023-02-18T14:48:44;14.50;93.80
12223;DHT22;6174;49.058;8.524;2023-02-18T14:51:16;14.50;93.70
12223;DHT22;6174;49.058;8.524;2023-02-18T14:53:44;14.50;93.70
12223;DHT22;6174;49.058;8.524;2023-02-18T14:56:15;14.30;93.80
12223;DHT22;6174;49.058;8.524;2023-02-18T14:58:46;14.40;94.00
12223;DHT22;6174;49.058;8.524;2023-02-18T15:01:17;14.40;94.20
12223;DHT22;6174;49.058;8.524;2023-02-18T15:03:46;14.30;94.10
12223;DHT22;6174;49.058;8.524;2023-02-18T15:06:24;14.30;94.40
12223;DHT22;6174;49.058;8.524;2023-02-18T15:08:51;14.30;94.40
12223;DHT22;6174;49.058;8.524;2023-02-18T15:11:19;14.30;94.70
12223;DHT22;6174;49.058;8.524;2023-02-18T15:13:49;14.20;94.70
12223;DHT22;6174;49.058;8.524;2023-02-18T15:16:19;14.20;94.60
12223;DHT22;6174;49.058;8.524;2023-02-18T15:18:51;14.10;94.50
12223;DHT22;6174;49.058;8.524;2023-02-18T15:21:27;14.10;94.70
12223;DHT22;6174;49.058;8.524;2023-02-18T15:24:01;14.10;94.40
12223;DHT22;6174;49.058;8.524;2023-02-18T15:26:31;14.10;94.70
12223;DHT22;6174;49.058;8.524;2023-02-18T15:29:00;14.00;94.90
12223;DHT22;6174;49.058;8.524;2023-02-18T15:31:30;14.00;95.20
12223;DHT22;6174;49.058;8.524;2023-02-18T15:33:57;14.00;95.30
12223;DHT22;6174;49.058;8.524;2023-02-18T15:36:24;14.00;95.30
12223;DHT22;6174;49.058;8.524;2023-02-18T15:38:51;13.90;95.20
12223;DHT22;6174;49.058;8.524;2023-02-18T15:41:19;13.90;95.20
12223;DHT22;6174;49.058;8.524;2023-02-18T15:43:52;13.80;95.40
12223;DHT22;6174;49.058;8.524;2023-02-18T15:46:21;13.80;95.10
12223;DHT22;6174;49.058;8.524;2023-02-18T15:48:51;13.70;95.20
12223;DHT22;6174;49.058;8.524;2023-02-18T15:51:20;13.70;95.50
12223;DHT22;6174;49.058;8.524;2023-02-18T15:53:51;13.70;95.70
12223;DHT22;6174;49.058;8.524;2023-02-18T15:56:25;13.70;95.70
12223;DHT22;6174;49.058;8.524;2023-02-18T15:59:07;13.60;95.80
12223;DHT22;6174;49.058;8.524;2023-02-18T16:01:36;13.60;96.50
12223;DHT22;6174;49.058;8.524;2023-02-18T16:04:05;13.60;95.90
12223;DHT22;6174;49.058;8.524;2023-02-18T16:06:36;13.60;96.20
12223;DHT22;6174;49.058;8.524;2023-02-18T16:09:11;13.50;96.30
12223;DHT22;6174;49.058;8.524;2023-02-18T16:11:40;13.50;96.30
12223;DHT22;6174;49.058;8.524;2023-02-18T16:14:25;13.50;96.30
12223;DHT22;6174;49.058;8.524;2023-02-18T16:17:15;13.40;96.60
12223;DHT22;6174;49.058;8.524;2023-02-18T16:19:48;13.40;96.70
12223;DHT22;6174;49.058;8.524;2023-02-18T16:22:23;13.40;97.00
12223;DHT22;6174;49.058;8.524;2023-02-18T16:24:56;13.40;97.00
12223;DHT22;6174;49.058;8.524;2023-02-18T16:27:35;13.30;97.40
12223;DHT22;6174;49.058;8.524;2023-02-18T16:30:13;13.20;97.90
12223;DHT22;6174;49.058;8.524;2023-02-18T16:32:42;13.20;98.00
12223;DHT22;6174;49.058;8.524;2023-02-18T16:35:10;13.20;98.10
12223;DHT22;6174;49.058;8.524;2023-02-18T16:37:37;13.10;98.10
12223;DHT22;6174;49.058;8.524;2023-02-18T16:40:09;13.20;98.40
12223;DHT22;6174;49.058;8.524;2023-02-18T16:42:42;13.10;98.50
12223;DHT22;6174;49.058;8.524;2023-02-18T16:45:11;13.10;98.80
12223;DHT22;6174;49.058;8.524;2023-02-18T16:47:38;13.00;98.90
12223;DHT22;6174;49.058;8.524;2023-02-18T16:50:13;12.90;99.10
12223;DHT22;6174;49.058;8.524;2023-02-18T16:52:42;12.80;99.60
12223;DHT22;6174;49.058;8.524;2023-02-18T16:55:15;12.90;99.50
12223;DHT22;6174;49.058;8.524;2023-02-18T16:57:43;13.00;99.40
12223;DHT22;6174;49.058;8.524;2023-02-18T17:00:10;12.90;99.40
12223;DHT22;6174;49.058;8.524;2023-02-18T17:02:37;12.90;99.50
12223;DHT22;6174;49.058;8.524;2023-02-18T17:05:06;12.90;99.60
12223;DHT22;6174;49.058;8.524;2023-02-18T17:07:32;12.80;99.60
12223;DHT22;6174;49.058;8.524;2023-02-18T17:10:01;12.70;99.90
12223;DHT22;6174;49.058;8.524;2023-02-18T17:12:28;12.70;99.90
12223;DHT22;6174;49.058;8.524;2023-02-18T17:14:54;12.70;99.90
12223;DHT22;6174;49.058;8.524;2023-02-18T17:17:21;12.70;99.90
12223;DHT22;6174;49.058;8.524;2023-02-18T17:19:48;12.60;99.90
12223;DHT22;6174;49.058;8.524;2023-02-18T17:22:16;12.50;99.90
12223;DHT22;6174;49.058;8.524;2023-02-18T17:24:43;12.50;99.90
12223;DHT22;6174;49.058;8.524;2023-02-18T17:27:09;12.40;99.90
12223;DHT22;6174;49.058;8.524;2023-02-18T17:29:36;12.40;99.90
12223;DHT22;6174;49.058;8.524;2023-02-18T17:32:05;12.40;99.90
12223;DHT22;6174;49.058;8.524;2023-02-18T17:34:33;12.40;99.90
12223;DHT22;6174;49.058;8.524;2023-02-18T17:37:02;12.30;99.90
12223;DHT22;6174;49.058;8.524;2023-02-18T17:39:30;12.30;99.90
12223;DHT22;6174;49.058;8.524;2023-02-18T17:41:56;12.30;99.90
12223;DHT22;6174;49.058;8.524;2023-02-18T17:44:23;12.20;99.90
12223;DHT22;6174;49.058;8.524;2023-02-18T17:46:50;12.20;99.90
12223;DHT22;6174;49.058;8.524;2023-02-18T17:49:19;12.20;99.90
12223;DHT22;6174;49.058;8.524;2023-02-18T17:51:46;12.30;99.90
12223;DHT22;6174;49.058;8.524;2023-02-18T17:54:15;12.20;99.90
12223;DHT22;6174;49.058;8.524;2023-02-18T17:56:44;12.20;99.90
12223;DHT22;6174;49.058;8.524;2023-02-18T17:59:11;12.20;99.90
12223;DHT22;6174;49.058;8.524;2023-02-18T18:01:38;12.20;99.90
12223;DHT22;6174;49.058;8.524;2023-02-18T18:04:08;12.20;99.90
12223;DHT22;6174;49.058;8.524;2023-02-18T18:06:36;12.20;99.90
12223;DHT22;6174;49.058;8.524;2023-02-18T18:09:02;12.20;99.90
12223;DHT22;6174;49.058;8.524;2023-02-18T18:11:29;12.20;99.90
12223;DHT22;6174;49.058;8.524;2023-02-18T18:13:58;12.20;99.90
12223;DHT22;6174;49.058;8.524;2023-02-18T18:16:25;12.20;99.90
12223;DHT22;6174;49.058;8.524;2023-02-18T18:18:52;12.20;99.90
12223;DHT22;6174;49.058;8.524;2023-02-18T18:21:21;12.20;99.90
12223;DHT22;6174;49.058;8.524;2023-02-18T18:23:49;12.20;99.90
12223;DHT22;6174;49.058;8.524;2023-02-18T18:26:16;12.10;99.90
12223;DHT22;6174;49.058;8.524;2023-02-18T18:28:43;12.20;99.90
12223;DHT22;6174;49.058;8.524;2023-02-18T18:31:13;12.10;99.90
12223;DHT22;6174;49.058;8.524;2023-02-18T18:33:40;12.10;99.90
12223;DHT22;6174;49.058;8.524;2023-02-18T18:36:07;12.10;99.90
12223;DHT22;6174;49.058;8.524;2023-02-18T18:38:34;12.10;99.90
12223;DHT22;6174;49.058;8.524;2023-02-18T18:41:01;12.00;99.90
12223;DHT22;6174;49.058;8.524;2023-02-18T18:43:29;12.00;99.90
12223;DHT22;6174;49.058;8.524;2023-02-18T18:45:56;12.00;99.90
12223;DHT22;6174;49.058;8.524;2023-02-18T18:48:24;12.00;99.90
12223;DHT22;6174;49.058;8.524;2023-02-18T18:50:52;12.00;99.90
12223;DHT22;6174;49.058;8.524;2023-02-18T18:53:21;11.90;99.90
12223;DHT22;6174;49.058;8.524;2023-02-18T18:55:50;11.90;99.90
12223;DHT22;6174;49.058;8.524;2023-02-18T18:58:17;11.90;99.90
12223;DHT22;6174;49.058;8.524;2023-02-18T19:00:50;11.90;99.90
12223;DHT22;6174;49.058;8.524;2023-02-18T19:03:18;11.90;99.90
12223;DHT22;6174;49.058;8.524;2023-02-18T19:05:46;11.80;99.90
12223;DHT22;6174;49.058;8.524;2023-02-18T19:08:15;11.80;99.90
12223;DHT22;6174;49.058;8.524;2023-02-18T19:10:45;11.80;99.90
12223;DHT22;6174;49.058;8.524;2023-02-18T19:13:14;11.80;99.90
12223;DHT22;6174;49.058;8.524;2023-02-18T19:15:41;11.80;99.90
12223;DHT22;6174;49.058;8.524;2023-02-18T19:18:12;11.80;99.90
12223;DHT22;6174;49.058;8.524;2023-02-18T19:20:40;11.80;99.90
12223;DHT22;6174;49.058;8.524;2023-02-18T19:23:08;11.80;99.90
12223;DHT22;6174;49.058;8.524;2023-02-18T19:25:36;11.80;99.90
12223;DHT22;6174;49.058;8.524;2023-02-18T19:28:03;11.90;99.90
12223;DHT22;6174;49.058;8.524;2023-02-18T19:30:32;11.80;99.90
12223;DHT22;6174;49.058;8.524;2023-02-18T19:33:00;11.80;99.90
12223;DHT22;6174;49.058;8.524;2023-02-18T19:35:28;11.80;99.90
12223;DHT22;6174;49.058;8.524;2023-02-18T19:37:56;11.80;99.90
12223;DHT22;6174;49.058;8.524;2023-02-18T19:40:26;11.80;99.90
12223;DHT22;6174;49.058;8.524;2023-02-18T19:42:53;11.70;99.90
12223;DHT22;6174;49.058;8.524;2023-02-18T19:45:21;11.60;99.90
12223;DHT22;6174;49.058;8.524;2023-02-18T19:47:51;11.60;99.90
12223;DHT22;6174;49.058;8.524;2023-02-18T19:50:18;11.60;99.90
12223;DHT22;6174;49.058;8.524;2023-02-18T19:52:45;11.60;99.90
12223;DHT22;6174;49.058;8.524;2023-02-18T19:55:12;11.60;99.90
12223;DHT22;6174;49.058;8.524;2023-02-18T19:57:40;11.50;99.90
12223;DHT22;6174;49.058;8.524;2023-02-18T20:00:08;11.50;99.90
12223;DHT22;6174;49.058;8.524;2023-02-18T20:02:35;11.60;99.90
12223;DHT22;6174;49.058;8.524;2023-02-18T20:05:03;11.50;99.90
12223;DHT22;6174;49.058;8.524;2023-02-18T20:07:29;11.50;99.90
12223;DHT22;6174;49.058;8.524;2023-02-18T20:09:56;11.50;99.90
12223;DHT22;6174;49.058;8.524;2023-02-18T20:12:23;11.50;99.90
12223;DHT22;6174;49.058;8.524;2023-02-18T20:14:51;11.40;99.90
12223;DHT22;6174;49.058;8.524;2023-02-18T20:17:18;11.40;99.90
12223;DHT22;6174;49.058;8.524;2023-02-18T20:19:44;11.40;99.90
12223;DHT22;6174;49.058;8.524;2023-02-18T20:22:11;11.40;99.90
12223;DHT22;6174;49.058;8.524;2023-02-18T20:24:38;11.40;99.90
12223;DHT22;6174;49.058;8.524;2023-02-18T20:27:06;11.40;99.90
12223;DHT22;6174;49.058;8.524;2023-02-18T20:29:34;11.30;99.90
12223;DHT22;6174;49.058;8.524;2023-02-18T20:32:03;11.40;99.90
12223;DHT22;6174;49.058;8.524;2023-02-18T20:34:30;11.40;99.90
12223;DHT22;6174;49.058;8.524;2023-02-18T20:36:58;11.40;99.90
12223;DHT22;6174;49.058;8.524;2023-02-18T20:39:25;11.30;99.90
12223;DHT22;6174;49.058;8.524;2023-02-18T20:41:52;11.30;99.90
12223;DHT22;6174;49.058;8.524;2023-02-18T20:44:19;11.30;99.90
12223;DHT22;6174;49.058;8.524;2023-02-18T20:46:48;11.30;99.90
12223;DHT22;6174;49.058;8.524;2023-02-18T20:49:18;11.20;99.90
12223;DHT22;6174;49.058;8.524;2023-02-18T20:51:45;11.20;99.90
12223;DHT22;6174;49.058;8.524;2023-02-18T20:54:14;11.20;99.90
12223;DHT22;6174;49.058;8.524;2023-02-18T20:56:44;11.20;99.90
12223;DHT22;6174;49.058;8.524;2023-02-18T20:59:13;11.20;99.90
12223;DHT22;6174;49.058;8.524;2023-02-18T21:01:40;11.20;99.90
12223;DHT22;6174;49.058;8.524;2023-02-18T21:04:09;11.20;99.90
12223;DHT22;6174;49.058;8.524;2023-02-18T21:06:37;11.10;99.90
12223;DHT22;6174;49.058;8.524;2023-02-18T21:09:04;11.10;99.90
12223;DHT22;6174;49.058;8.524;2023-02-18T21:11:31;11.10;99.90
12223;DHT22;6174;49.058;8.524;2023-02-18T21:13:58;11.00;99.90
12223;DHT22;6174;49.058;8.524;2023-02-18T21:16:27;11.00;99.90
12223;DHT22;6174;49.058;8.524;2023-02-18T21:18:56;11.00;99.90
12223;DHT22;6174;49.058;8.524;2023-02-18T21:21:24;11.00;99.90
12223;DHT22;6174;49.058;8.524;2023-02-18T21:23:52;10.90;99.90
12223;DHT22;6174;49.058;8.524;2023-02-18T21:26:20;10.90;99.90
12223;DHT22;6174;49.058;8.524;2023-02-18T21:28:48;10.80;99.90
12223;DHT22;6174;49.058;8.524;2023-02-18T21:31:16;10.80;99.90
12223;DHT22;6174;49.058;8.524;2023-02-18T21:33:43;10.80;99.90
12223;DHT22;6174;49.058;8.524;2023-02-18T21:36:10;10.70;99.90
12223;DHT22;6174;49.058;8.524;2023-02-18T21:38:37;10.70;99.90
12223;DHT22;6174;49.058;8.524;2023-02-18T21:41:05;10.60;99.90
12223;DHT22;6174;49.058;8.524;2023-02-18T21:43:33;10.60;99.90
12223;DHT22;6174;49.058;8.524;2023-02-18T21:46:07;10.60;99.90
12223;DHT22;6174;49.058;8.524;2023-02-18T21:48:35;10.50;99.90
12223;DHT22;6174;49.058;8.524;2023-02-18T21:51:19;10.40;99.90
12223;DHT22;6174;49.058;8.524;2023-02-18T21:54:00;10.40;99.90
12223;DHT22;6174;49.058;8.524;2023-02-18T21:56:28;10.40;99.90
12223;DHT22;6174;49.058;8.524;2023-02-18T21:58:54;10.30;99.90
12223;DHT22;6174;49.058;8.524;2023-02-18T22:01:21;10.30;99.90
12223;DHT22;6174;49.058;8.524;2023-02-18T22:03:48;10.30;99.90
12223;DHT22;6174;49.058;8.524;2023-02-18T22:06:15;10.30;99.90
12223;DHT22;6174;49.058;8.524;2023-02-18T22:08:42;10.30;99.90
12223;DHT22;6174;49.058;8.524;2023-02-18T22:11:08;10.30;99.90
12223;DHT22;6174;49.058;8.524;2023-02-18T22:13:36;10.30;99.90
12223;DHT22;6174;49.058;8.524;2023-02-18T22:16:04;10.30;99.90